Time;durP1;ratioP1;P1;durP2;ratioP2;P2;SDS_P1;SDS_P2;PMS_P1;PMS_P2;Temp;Humidity;BMP_temperature;BMP_pressure;BME280_temperature;BME280_humidity;BME280_pressure;Samples;Min_cycle;Max_cycle;Signal;HPM_P1;HPM_P2
2022/11/08 00:02:38;;;;;;;1.57;1.23;;;6.60;99.90;;;;;;5116191;28;20238;-87
2022/11/08 00:16:24;;;;;;;1.63;1.10;;;6.50;99.90;;;;;;5114763;28;20233;-88
2022/11/08 00:18:56;;;;;;;1.53;1.20;;;6.60;99.90;;;;;;5095076;28;20613;-87
2022/11/08 00:21:27;;;;;;;1.03;0.93;;;6.50;99.90;;;;;;5095386;28;20252;-87
2022/11/08 00:23:58;;;;;;;1.40;1.00;;;6.50;99.90;;;;;;5112688;28;20201;-86
2022/11/08 00:26:30;;;;;;;1.33;1.23;;;6.50;99.90;;;;;;5116038;28;20285;-88
2022/11/08 00:29:03;;;;;;;1.67;1.43;;;6.50;99.90;;;;;;5116133;28;20203;-86
2022/11/08 00:31:34;;;;;;;2.60;1.10;;;6.50;99.90;;;;;;5115896;28;20319;-87
2022/11/08 00:34:06;;;;;;;1.47;1.03;;;6.50;99.90;;;;;;5115361;28;20289;-87
2022/11/08 00:36:38;;;;;;;2.27;1.30;;;6.40;99.90;;;;;;5116328;28;20325;-87
2022/11/08 00:39:10;;;;;;;2.20;1.20;;;6.40;99.90;;;;;;5095749;28;20282;-87
2022/11/08 00:41:44;;;;;;;0.80;0.80;;;6.40;99.90;;;;;;5109144;28;20285;-86
2022/11/08 00:44:20;;;;;;;1.30;1.20;;;6.30;99.90;;;;;;5097038;28;20599;-87
2022/11/08 00:46:55;;;;;;;2.60;1.20;;;6.30;99.90;;;;;;5095406;28;20206;-86
2022/11/08 00:49:35;;;;;;;1.57;1.30;;;6.30;99.90;;;;;;5095012;28;20213;-87
2022/11/08 00:52:10;;;;;;;2.10;1.27;;;6.30;99.90;;;;;;5094327;28;20230;-87
2022/11/08 00:54:42;;;;;;;4.00;1.63;;;6.20;99.90;;;;;;5116129;28;20289;-86
2022/11/08 00:57:13;;;;;;;2.50;1.57;;;6.20;99.90;;;;;;5119667;28;20248;-86
2022/11/08 00:59:46;;;;;;;4.50;1.80;;;6.20;99.90;;;;;;5117223;28;20668;-86
2022/11/08 01:02:19;;;;;;;2.83;1.63;;;6.20;99.90;;;;;;5114630;28;20234;-87
2022/11/08 01:04:49;;;;;;;2.63;1.90;;;6.30;99.90;;;;;;5098553;28;20212;-87
2022/11/08 01:07:23;;;;;;;2.50;1.53;;;6.30;99.90;;;;;;5118019;28;20281;-88
2022/11/08 01:09:55;;;;;;;1.60;1.50;;;6.20;99.90;;;;;;5116036;28;20206;-86
2022/11/08 01:12:27;;;;;;;2.83;2.00;;;6.20;99.90;;;;;;5119943;28;20224;-87
2022/11/08 01:15:00;;;;;;;3.97;2.33;;;6.30;99.90;;;;;;5118323;28;20726;-87
2022/11/08 01:17:31;;;;;;;5.90;2.60;;;6.30;99.90;;;;;;5120662;28;20285;-86
2022/11/08 01:20:06;;;;;;;4.60;2.57;;;6.20;99.90;;;;;;5112229;28;20289;-88
2022/11/08 01:22:48;;;;;;;5.53;3.00;;;6.30;99.90;;;;;;5113159;28;20207;-86
2022/11/08 01:25:21;;;;;;;4.43;2.50;;;6.30;99.90;;;;;;5099459;28;20229;-87
2022/11/08 01:27:53;;;;;;;4.93;2.50;;;6.20;99.90;;;;;;5118208;28;20232;-86
2022/11/08 01:30:25;;;;;;;3.83;2.73;;;6.20;99.90;;;;;;5115921;28;20768;-87
2022/11/08 01:32:57;;;;;;;7.20;2.33;;;6.20;99.90;;;;;;5113665;28;20286;-87
2022/11/08 01:35:32;;;;;;;5.00;2.37;;;6.30;99.90;;;;;;5115479;28;20241;-87
2022/11/08 01:38:04;;;;;;;3.53;2.43;;;6.30;99.90;;;;;;5100570;28;20235;-87
2022/11/08 01:40:43;;;;;;;3.23;2.20;;;6.30;99.90;;;;;;5115610;28;20248;-87
2022/11/08 01:43:38;;;;;;;4.03;2.23;;;6.30;99.90;;;;;;5114270;28;20676;-87
2022/11/08 01:46:41;;;;;;;4.17;2.80;;;6.20;99.90;;;;;;5112333;28;20293;-87
2022/11/08 01:49:33;;;;;;;5.33;2.50;;;6.20;99.90;;;;;;5114444;28;20202;-87
2022/11/08 01:52:32;;;;;;;3.07;2.10;;;6.20;99.90;;;;;;5113557;28;20230;-87
2022/11/08 01:55:15;;;;;;;3.27;2.17;;;6.20;99.90;;;;;;5114220;28;20578;-86
2022/11/08 01:57:52;;;;;;;4.27;2.40;;;6.10;99.90;;;;;;5114042;28;20216;-86
2022/11/08 02:00:28;;;;;;;3.07;2.20;;;6.10;99.90;;;;;;5114351;28;20238;-88
2022/11/08 02:03:05;;;;;;;3.33;2.33;;;6.10;99.90;;;;;;5113294;28;20261;-87
2022/11/08 02:05:36;;;;;;;2.50;2.10;;;6.00;99.90;;;;;;5094113;28;20205;-86
2022/11/08 02:08:11;;;;;;;3.00;2.07;;;6.10;99.90;;;;;;5093534;28;20294;-88
2022/11/08 02:10:45;;;;;;;2.87;1.90;;;5.90;99.90;;;;;;5110010;28;20304;-87
2022/11/08 02:13:22;;;;;;;4.43;2.63;;;5.90;99.90;;;;;;5113604;28;20299;-87
2022/11/08 02:15:54;;;;;;;3.63;2.20;;;5.90;99.90;;;;;;5113630;28;20309;-87
2022/11/08 02:18:30;;;;;;;2.50;1.80;;;5.90;99.90;;;;;;5113307;28;20289;-87
2022/11/08 02:21:10;;;;;;;3.37;1.33;;;5.70;99.90;;;;;;5113940;28;20292;-87
2022/11/08 02:23:48;;;;;;;2.47;1.77;;;5.20;99.90;;;;;;5113081;28;20285;-87
2022/11/08 02:26:24;;;;;;;2.10;1.40;;;4.90;99.90;;;;;;5113448;28;20293;-87
2022/11/08 02:28:56;;;;;;;2.30;1.37;;;4.70;99.90;;;;;;5096606;28;20627;-87
2022/11/08 02:31:27;;;;;;;2.90;1.20;;;4.50;99.90;;;;;;5113601;28;20236;-87
2022/11/08 02:33:59;;;;;;;1.63;1.00;;;4.50;99.90;;;;;;5112884;28;20209;-86
2022/11/08 02:36:30;;;;;;;4.37;1.00;;;4.40;99.90;;;;;;5112485;28;20289;-91
2022/11/08 02:39:04;;;;;;;0.80;0.80;;;4.30;99.90;;;;;;5103691;28;20648;-89
2022/11/08 02:41:35;;;;;;;1.87;0.90;;;4.30;99.90;;;;;;5101168;28;20237;-89
2022/11/08 02:44:07;;;;;;;1.20;0.90;;;4.30;99.90;;;;;;5104507;28;20215;-89
2022/11/08 02:46:38;;;;;;;1.30;1.03;;;4.20;99.90;;;;;;5084819;28;20595;-89
2022/11/08 02:49:09;;;;;;;1.67;1.13;;;4.20;99.90;;;;;;5108762;28;20639;-88
2022/11/08 02:51:43;;;;;;;2.20;0.90;;;4.30;99.90;;;;;;5107194;28;20265;-89
2022/11/08 02:54:17;;;;;;;3.50;1.20;;;4.30;99.90;;;;;;5104672;28;20241;-89
2022/11/08 02:56:50;;;;;;;1.20;1.00;;;4.30;99.90;;;;;;5096624;28;20305;-89
2022/11/08 02:59:22;;;;;;;1.73;1.10;;;4.40;99.90;;;;;;5092689;28;20269;-90
2022/11/08 03:01:55;;;;;;;1.60;1.23;;;4.40;99.90;;;;;;5088411;28;20553;-90
2022/11/08 03:04:26;;;;;;;1.90;1.43;;;4.40;99.90;;;;;;5100847;28;20709;-88
2022/11/08 03:06:57;;;;;;;2.10;1.17;;;4.40;99.90;;;;;;5104301;28;20285;-90
2022/11/08 03:09:31;;;;;;;2.20;1.50;;;4.40;99.90;;;;;;5098119;28;20199;-89
2022/11/08 03:12:04;;;;;;;3.97;1.60;;;4.40;99.90;;;;;;5092252;28;20770;-89
2022/11/08 03:14:38;;;;;;;6.80;1.60;;;4.40;99.90;;;;;;5093191;28;20735;-88
2022/11/08 03:17:09;;;;;;;3.40;1.90;;;4.50;99.90;;;;;;5103778;28;20209;-89
2022/11/08 03:19:41;;;;;;;3.50;1.50;;;4.50;99.90;;;;;;5082936;28;20664;-89
2022/11/08 03:22:12;;;;;;;2.07;1.63;;;4.50;99.90;;;;;;5113316;28;20236;-90
2022/11/08 03:24:46;;;;;;;5.67;2.00;;;4.60;99.90;;;;;;5117276;28;20193;-90
2022/11/08 03:27:18;;;;;;;3.07;1.90;;;4.60;99.90;;;;;;5132641;28;20200;-89
2022/11/08 03:29:49;;;;;;;3.30;2.10;;;4.50;99.90;;;;;;5130537;28;20201;-90
2022/11/08 03:32:20;;;;;;;2.20;1.70;;;4.50;99.90;;;;;;5115732;28;20261;-90
2022/11/08 03:34:51;;;;;;;2.67;2.23;;;4.50;99.90;;;;;;5119716;28;20195;-90
2022/11/08 03:37:23;;;;;;;4.03;2.03;;;4.40;99.90;;;;;;5104659;28;20203;-90
2022/11/08 03:39:58;;;;;;;2.93;2.20;;;4.30;99.90;;;;;;5102105;28;20246;-90
2022/11/08 03:42:29;;;;;;;2.80;1.60;;;4.30;99.90;;;;;;5099607;28;20245;-89
2022/11/08 03:45:03;;;;;;;2.90;2.40;;;4.30;99.90;;;;;;5098311;28;20202;-88
2022/11/08 03:47:42;;;;;;;5.53;2.70;;;4.30;99.90;;;;;;5100554;28;20239;-89
2022/11/08 03:53:04;;;;;;;5.07;2.53;;;4.30;99.90;;;;;;5115367;28;20255;-89
2022/11/08 03:55:45;;;;;;;3.67;2.70;;;4.20;99.90;;;;;;5120568;28;20253;-87
2022/11/08 03:58:17;;;;;;;4.20;3.23;;;4.20;99.90;;;;;;5114276;28;20218;-90
2022/11/08 04:00:49;;;;;;;11.80;5.50;;;4.20;99.90;;;;;;5115936;28;20221;-89
2022/11/08 04:03:25;;;;;;;5.67;3.80;;;4.10;99.90;;;;;;5118335;28;20604;-89
2022/11/08 04:05:57;;;;;;;7.70;3.70;;;4.00;99.90;;;;;;5114558;28;20198;-89
2022/11/08 04:08:29;;;;;;;3.40;2.90;;;4.00;99.90;;;;;;5105749;28;20233;-89
2022/11/08 04:16:49;;;;;;;4.20;3.47;;;3.90;99.90;;;;;;4760349;28;9999985;-91
2022/11/08 04:22:14;;;;;;;3.40;2.60;;;3.70;99.90;;;;;;5109693;28;20209;-90
2022/11/08 04:24:45;;;;;;;3.60;2.60;;;3.60;99.90;;;;;;5113881;28;20250;-89
2022/11/08 04:27:18;;;;;;;5.83;3.83;;;3.50;99.90;;;;;;5105084;28;20557;-89
2022/11/08 04:29:50;;;;;;;4.43;2.57;;;3.50;99.90;;;;;;5099665;28;20221;-89
2022/11/08 04:32:21;;;;;;;4.07;2.93;;;3.50;99.90;;;;;;5105076;28;20238;-89
2022/11/08 04:34:52;;;;;;;4.90;2.57;;;3.50;99.90;;;;;;5108816;28;20660;-89
2022/11/08 04:37:24;;;;;;;3.13;2.53;;;3.60;99.90;;;;;;5113013;28;20248;-91
2022/11/08 04:39:55;;;;;;;3.70;3.10;;;3.60;99.90;;;;;;5118275;28;20195;-90
2022/11/08 04:42:29;;;;;;;24.93;10.10;;;3.60;99.90;;;;;;5124071;28;20194;-91
2022/11/08 04:45:00;;;;;;;5.00;3.40;;;3.70;99.90;;;;;;5123980;28;20241;-89
2022/11/08 04:47:32;;;;;;;4.53;3.20;;;3.80;99.90;;;;;;5110150;28;20276;-89
2022/11/08 04:50:12;;;;;;;4.70;3.07;;;3.90;99.90;;;;;;5101669;28;20242;-88
2022/11/08 04:52:43;;;;;;;5.27;3.17;;;3.80;99.90;;;;;;5107200;28;20230;-89
2022/11/08 04:55:14;;;;;;;3.80;3.17;;;3.80;99.90;;;;;;5103345;28;20233;-89
2022/11/08 04:57:48;;;;;;;3.40;2.70;;;3.90;99.90;;;;;;5097228;28;20238;-89
2022/11/08 05:00:21;;;;;;;8.87;3.20;;;3.90;99.90;;;;;;5095811;28;20206;-88
2022/11/08 05:02:52;;;;;;;3.67;2.70;;;4.00;99.90;;;;;;5093427;28;20203;-88
2022/11/08 05:05:24;;;;;;;5.07;2.63;;;4.00;99.90;;;;;;5109031;28;20286;-88
2022/11/08 05:07:55;;;;;;;3.40;2.33;;;4.00;99.90;;;;;;5113387;28;20190;-88
2022/11/08 05:10:27;;;;;;;4.80;2.77;;;4.00;99.90;;;;;;5096564;28;20199;-88
2022/11/08 05:13:00;;;;;;;3.23;1.97;;;4.00;99.90;;;;;;5094028;28;20231;-90
2022/11/08 05:15:31;;;;;;;1.60;1.50;;;3.90;99.90;;;;;;5099411;28;20226;-88
2022/11/08 05:18:06;;;;;;;2.40;2.00;;;3.90;99.90;;;;;;5110856;28;20198;-90
2022/11/08 05:23:41;;;;;;;2.07;1.77;;;3.90;99.90;;;;;;5011918;28;20348;-87
2022/11/08 05:26:13;;;;;;;2.43;2.00;;;3.90;99.90;;;;;;5088576;28;20285;-88
2022/11/08 05:28:46;;;;;;;3.93;1.90;;;3.90;99.90;;;;;;5113505;28;20214;-89
2022/11/08 05:31:19;;;;;;;3.07;1.63;;;3.90;99.90;;;;;;5119868;28;20203;-91
2022/11/08 05:33:51;;;;;;;1.90;1.67;;;3.90;99.90;;;;;;5120711;28;20241;-89
2022/11/08 05:36:22;;;;;;;4.30;1.70;;;3.80;99.90;;;;;;5113358;28;20234;-89
2022/11/08 05:38:54;;;;;;;1.57;1.47;;;3.90;99.90;;;;;;5131440;28;20230;-89
2022/11/08 05:41:27;;;;;;;3.37;2.17;;;3.80;99.90;;;;;;5118225;28;20211;-88
2022/11/08 05:44:01;;;;;;;4.57;1.77;;;3.80;99.90;;;;;;5109490;28;20207;-89
2022/11/08 05:46:33;;;;;;;5.07;2.57;;;3.80;99.90;;;;;;5113803;28;20205;-88
2022/11/08 05:49:05;;;;;;;2.33;1.80;;;3.80;99.90;;;;;;5114705;28;20237;-90
2022/11/08 05:51:36;;;;;;;3.77;2.10;;;3.80;99.90;;;;;;5101713;28;20221;-89
2022/11/08 05:54:08;;;;;;;3.87;2.40;;;3.80;99.90;;;;;;5094527;28;20313;-89
2022/11/08 05:56:39;;;;;;;6.47;2.07;;;3.80;99.90;;;;;;5100167;28;20666;-89
2022/11/08 05:59:14;;;;;;;4.87;2.27;;;3.80;99.90;;;;;;5107933;28;20210;-89
2022/11/08 06:01:45;;;;;;;5.93;2.07;;;3.80;99.90;;;;;;5116167;28;20289;-89
2022/11/08 06:04:17;;;;;;;4.40;1.97;;;3.80;99.90;;;;;;5114144;28;20206;-90
2022/11/08 06:06:51;;;;;;;3.07;1.40;;;3.90;99.90;;;;;;5111332;28;20210;-89
2022/11/08 06:09:23;;;;;;;2.13;1.60;;;3.80;99.90;;;;;;5103541;28;20290;-90
2022/11/08 06:11:57;;;;;;;1.47;1.30;;;3.90;99.90;;;;;;5094548;28;20226;-90
2022/11/08 06:14:30;;;;;;;1.43;1.17;;;3.90;99.90;;;;;;5110903;28;20755;-90
2022/11/08 06:17:01;;;;;;;1.30;1.17;;;3.80;99.90;;;;;;5107983;28;20293;-89
2022/11/08 06:19:33;;;;;;;1.47;1.37;;;3.90;99.90;;;;;;5108908;28;20194;-90
2022/11/08 06:22:05;;;;;;;2.73;1.27;;;3.90;99.90;;;;;;5094682;28;20638;-90
2022/11/08 06:24:36;;;;;;;1.80;1.70;;;3.90;99.90;;;;;;5098462;28;20207;-88
2022/11/08 06:27:07;;;;;;;2.77;2.23;;;3.90;99.90;;;;;;5107562;28;20214;-89
2022/11/08 06:29:43;;;;;;;2.43;2.23;;;3.90;99.90;;;;;;5095833;28;20246;-89
2022/11/08 06:32:14;;;;;;;2.53;2.10;;;3.90;99.90;;;;;;5087865;28;20230;-90
2022/11/08 06:34:48;;;;;;;2.07;1.87;;;3.90;99.90;;;;;;5115945;28;20254;-89
2022/11/08 06:37:20;;;;;;;2.30;2.10;;;3.90;99.90;;;;;;5118015;28;20221;-90
2022/11/08 06:39:51;;;;;;;2.13;2.00;;;3.80;99.90;;;;;;5097447;28;20662;-89
2022/11/08 06:42:23;;;;;;;3.93;2.03;;;3.90;99.90;;;;;;5094226;28;20634;-89
2022/11/08 06:44:56;;;;;;;2.30;2.10;;;3.90;99.90;;;;;;5112680;28;20241;-88
2022/11/08 06:47:28;;;;;;;2.53;2.20;;;3.90;99.90;;;;;;5100850;28;20332;-88
2022/11/08 06:49:59;;;;;;;1.97;1.87;;;3.90;99.90;;;;;;5109508;28;20213;-89
2022/11/08 06:52:30;;;;;;;4.60;2.20;;;3.90;99.90;;;;;;5101188;28;20680;-89
2022/11/08 06:55:01;;;;;;;2.00;1.80;;;3.80;99.90;;;;;;5093131;28;20305;-89
2022/11/08 06:57:34;;;;;;;2.87;2.27;;;3.70;99.90;;;;;;5094615;28;20563;-89
2022/11/08 07:00:08;;;;;;;3.30;2.30;;;3.70;99.90;;;;;;5101229;28;20306;-88
2022/11/08 07:02:40;;;;;;;2.60;2.40;;;3.80;99.90;;;;;;5105041;28;20213;-89
2022/11/08 07:05:13;;;;;;;3.10;2.80;;;3.80;99.90;;;;;;5118073;28;20654;-88
2022/11/08 07:07:50;;;;;;;3.57;2.40;;;3.80;99.90;;;;;;5117731;28;20209;-89
2022/11/08 07:10:23;;;;;;;2.67;2.47;;;3.80;99.90;;;;;;5111041;28;20200;-91
2022/11/08 07:13:00;;;;;;;3.53;2.50;;;3.80;99.90;;;;;;5094416;28;20210;-92
2022/11/08 07:15:35;;;;;;;2.60;2.40;;;3.80;99.90;;;;;;5103514;28;20222;-91
2022/11/08 07:18:09;;;;;;;3.30;2.20;;;3.80;99.90;;;;;;5108728;28;20237;-91
2022/11/08 07:20:43;;;;;;;2.27;2.13;;;3.80;99.90;;;;;;5101960;28;20203;-91
2022/11/08 07:23:15;;;;;;;3.63;2.90;;;3.70;99.90;;;;;;5115664;28;20240;-91
2022/11/08 07:25:47;;;;;;;3.03;2.80;;;3.80;99.90;;;;;;5104817;28;20199;-90
2022/11/08 07:28:20;;;;;;;3.63;3.33;;;3.70;99.90;;;;;;5110963;28;20213;-90
2022/11/08 07:30:59;;;;;;;5.13;2.90;;;3.70;99.90;;;;;;5110735;28;20281;-91
2022/11/08 07:33:31;;;;;;;4.20;3.23;;;3.80;99.90;;;;;;5104071;28;20223;-91
2022/11/08 07:36:02;;;;;;;3.40;3.10;;;3.80;99.90;;;;;;5093713;28;20210;-92
2022/11/08 07:38:33;;;;;;;3.50;3.10;;;3.80;99.90;;;;;;5116268;28;20266;-91
2022/11/08 07:41:05;;;;;;;5.17;2.93;;;3.80;99.90;;;;;;5119167;28;20493;-89
2022/11/08 07:43:37;;;;;;;3.37;3.07;;;3.80;99.90;;;;;;5119787;28;20193;-91
2022/11/08 07:46:14;;;;;;;3.00;2.70;;;3.80;99.90;;;;;;5112429;28;20228;-92
2022/11/08 07:48:45;;;;;;;3.50;3.20;;;3.80;99.90;;;;;;5118606;28;20206;-91
2022/11/08 07:51:16;;;;;;;4.60;3.60;;;3.80;99.90;;;;;;5116448;28;20225;-92
2022/11/08 07:53:48;;;;;;;5.90;3.57;;;3.80;99.90;;;;;;5108760;28;20246;-93
2022/11/08 07:56:19;;;;;;;4.30;3.77;;;3.80;99.90;;;;;;5105595;28;20241;-92
2022/11/08 07:58:52;;;;;;;3.30;3.00;;;3.80;99.90;;;;;;5113134;28;20229;-92
2022/11/08 08:01:26;;;;;;;3.40;3.10;;;3.80;99.90;;;;;;5111432;28;20279;-91
2022/11/08 08:03:58;;;;;;;4.40;2.70;;;3.80;99.90;;;;;;5101515;28;20294;-89
2022/11/08 08:06:30;;;;;;;2.30;2.10;;;3.80;99.90;;;;;;5114792;28;20285;-87
2022/11/08 08:09:02;;;;;;;2.47;2.27;;;3.70;99.90;;;;;;5095310;28;20233;-89
2022/11/08 08:11:34;;;;;;;2.30;2.10;;;3.70;99.90;;;;;;5113736;28;20208;-90
2022/11/08 08:14:05;;;;;;;2.23;2.03;;;3.80;99.90;;;;;;5103194;28;20328;-89
2022/11/08 08:16:38;;;;;;;2.13;1.93;;;3.70;99.90;;;;;;5112506;28;20195;-87
2022/11/08 08:19:10;;;;;;;2.40;2.10;;;3.70;99.90;;;;;;5103306;28;20293;-87
2022/11/08 08:21:41;;;;;;;2.77;2.47;;;3.70;99.90;;;;;;5102193;28;20937;-87
2022/11/08 08:24:13;;;;;;;2.90;2.40;;;3.60;99.90;;;;;;5104969;28;20281;-89
2022/11/08 08:26:44;;;;;;;3.10;2.80;;;3.60;99.90;;;;;;5107605;28;20290;-88
2022/11/08 08:29:15;;;;;;;2.90;2.70;;;3.60;99.90;;;;;;5103996;28;20236;-89
2022/11/08 08:31:48;;;;;;;4.60;3.10;;;3.60;99.90;;;;;;5111311;28;20298;-88
2022/11/08 08:34:19;;;;;;;3.63;3.33;;;3.60;99.90;;;;;;5104794;28;20309;-90
2022/11/08 08:36:51;;;;;;;3.73;3.37;;;3.60;99.90;;;;;;5112943;28;20566;-88
2022/11/08 08:39:23;;;;;;;3.83;3.50;;;3.50;99.90;;;;;;5084899;28;20847;-90
2022/11/08 08:41:54;;;;;;;4.30;3.90;;;3.50;99.90;;;;;;5113425;28;20229;-91
2022/11/08 08:44:25;;;;;;;4.60;4.20;;;3.60;99.90;;;;;;5106043;28;20293;-90
2022/11/08 08:47:02;;;;;;;4.67;4.27;;;3.60;99.90;;;;;;5110506;28;20194;-90
2022/11/08 08:49:34;;;;;;;7.53;3.97;;;3.60;99.90;;;;;;5104637;28;20205;-90
2022/11/08 08:52:06;;;;;;;4.93;4.43;;;3.60;99.90;;;;;;5108049;28;20237;-89
2022/11/08 08:54:37;;;;;;;3.50;3.20;;;3.60;99.90;;;;;;5101885;28;20231;-90
2022/11/08 08:57:09;;;;;;;4.00;3.53;;;3.60;99.90;;;;;;5076505;28;21005;-90
2022/11/08 08:59:40;;;;;;;3.10;2.80;;;3.60;99.90;;;;;;5085961;28;20297;-90
2022/11/08 09:02:33;;;;;;;3.33;3.03;;;3.60;99.90;;;;;;5100367;28;20202;-91
2022/11/08 09:05:09;;;;;;;4.33;3.47;;;3.60;99.90;;;;;;5108879;28;20201;-89
2022/11/08 09:07:41;;;;;;;4.13;3.37;;;3.60;99.90;;;;;;5117496;28;20388;-89
2022/11/08 09:10:13;;;;;;;3.20;2.90;;;3.60;99.90;;;;;;5105908;28;20210;-89
2022/11/08 09:12:44;;;;;;;4.30;3.37;;;3.60;99.90;;;;;;5100472;28;20631;-90
2022/11/08 09:15:15;;;;;;;3.43;3.13;;;3.60;99.90;;;;;;5111538;28;20322;-90
2022/11/08 09:17:49;;;;;;;4.57;3.50;;;3.60;99.90;;;;;;5105643;28;20295;-89
2022/11/08 09:20:21;;;;;;;4.50;3.43;;;3.60;99.90;;;;;;5094411;28;20317;-89
2022/11/08 09:22:52;;;;;;;7.60;3.37;;;3.60;99.90;;;;;;5108552;28;20571;-88
2022/11/08 09:25:23;;;;;;;4.50;2.90;;;3.60;99.90;;;;;;5105402;28;20641;-88
2022/11/08 09:27:56;;;;;;;4.30;3.20;;;3.60;99.90;;;;;;5112260;28;20234;-88
2022/11/08 09:30:29;;;;;;;3.33;3.03;;;3.60;99.90;;;;;;5113276;28;20245;-87
2022/11/08 09:33:03;;;;;;;3.73;2.73;;;3.50;99.90;;;;;;5098486;28;20221;-89
2022/11/08 09:35:35;;;;;;;4.27;2.97;;;3.50;99.90;;;;;;5099167;28;20234;-89
2022/11/08 09:38:08;;;;;;;5.57;2.90;;;3.50;99.90;;;;;;5092816;28;20199;-87
2022/11/08 09:40:44;;;;;;;5.73;2.07;;;3.60;99.90;;;;;;5093406;28;20286;-89
2022/11/08 09:43:36;;;;;;;3.77;2.00;;;3.60;99.90;;;;;;5096145;28;20234;-88
2022/11/08 09:46:11;;;;;;;3.57;2.00;;;3.60;99.90;;;;;;5114245;28;20238;-88
2022/11/08 09:48:47;;;;;;;3.37;2.23;;;3.50;99.90;;;;;;5095479;28;20238;-88
2022/11/08 09:51:21;;;;;;;2.93;2.33;;;3.50;99.90;;;;;;5100116;28;20206;-88
2022/11/08 09:53:56;;;;;;;3.70;1.93;;;3.60;99.90;;;;;;5098925;28;20252;-88
2022/11/08 09:56:32;;;;;;;3.10;2.23;;;3.60;99.90;;;;;;5103666;28;20294;-88
2022/11/08 09:59:06;;;;;;;2.20;1.87;;;3.60;99.90;;;;;;5105297;28;20221;-89
2022/11/08 10:01:39;;;;;;;3.27;2.00;;;3.50;99.90;;;;;;5111944;28;20191;-89
2022/11/08 10:04:16;;;;;;;6.83;2.30;;;3.50;99.90;;;;;;5106356;28;20199;-88
2022/11/08 10:07:03;;;;;;;3.60;1.80;;;3.50;99.90;;;;;;5093453;28;20209;-89
2022/11/08 10:09:54;;;;;;;4.20;2.30;;;3.60;99.90;;;;;;5096211;28;20213;-88
2022/11/08 10:12:31;;;;;;;3.33;2.37;;;3.60;99.90;;;;;;5112542;28;20220;-88
2022/11/08 10:15:18;;;;;;;3.20;2.23;;;3.50;99.90;;;;;;5112981;28;20337;-88
2022/11/08 10:18:15;;;;;;;4.20;2.10;;;3.50;99.90;;;;;;5111230;28;20265;-90
2022/11/08 10:21:03;;;;;;;4.17;2.23;;;3.50;99.90;;;;;;5105665;28;20198;-88
2022/11/08 10:23:44;;;;;;;2.97;2.10;;;3.50;99.90;;;;;;5110425;28;20260;-89
2022/11/08 10:26:17;;;;;;;2.83;2.37;;;3.60;99.90;;;;;;5109536;28;20681;-89
2022/11/08 10:29:01;;;;;;;5.57;2.40;;;3.60;99.90;;;;;;5096697;28;20191;-88
2022/11/08 10:31:35;;;;;;;4.63;2.60;;;3.70;99.90;;;;;;5105866;28;20203;-87
2022/11/08 10:34:15;;;;;;;4.17;2.83;;;3.70;99.90;;;;;;5100719;28;20266;-88
2022/11/08 10:36:51;;;;;;;5.50;2.20;;;3.70;99.90;;;;;;5117729;28;20257;-88
2022/11/08 10:39:27;;;;;;;7.97;2.50;;;3.80;99.90;;;;;;5118738;28;20289;-88
2022/11/08 10:42:07;;;;;;;4.83;1.97;;;3.70;99.90;;;;;;5118399;28;20553;-89
2022/11/08 10:44:39;;;;;;;2.77;1.90;;;3.70;99.90;;;;;;5112861;28;20225;-88
2022/11/08 10:47:18;;;;;;;4.13;2.57;;;3.70;99.90;;;;;;5118929;28;20249;-89
2022/11/08 10:49:51;;;;;;;2.60;2.13;;;3.70;99.90;;;;;;5098464;28;20605;-89
2022/11/08 10:52:32;;;;;;;4.10;2.47;;;3.60;99.90;;;;;;5097777;28;20940;-88
2022/11/08 10:55:08;;;;;;;2.77;1.87;;;3.70;99.90;;;;;;5119251;28;20238;-89
2022/11/08 10:57:43;;;;;;;3.47;2.30;;;3.80;99.90;;;;;;5120490;28;20744;-89
2022/11/08 11:00:26;;;;;;;4.70;2.00;;;3.80;99.90;;;;;;5119443;28;20266;-88
2022/11/08 11:02:59;;;;;;;2.67;2.13;;;3.80;99.90;;;;;;5099076;28;20213;-88
2022/11/08 11:05:34;;;;;;;3.70;2.40;;;3.80;99.90;;;;;;5096736;28;20200;-89
2022/11/08 11:08:17;;;;;;;3.13;2.33;;;3.80;99.90;;;;;;5096427;28;20297;-88
2022/11/08 11:10:50;;;;;;;4.37;2.27;;;3.80;99.90;;;;;;5097171;28;20203;-89
2022/11/08 11:13:25;;;;;;;4.57;2.07;;;3.90;99.90;;;;;;5097912;28;20664;-88
2022/11/08 11:16:03;;;;;;;2.27;1.90;;;3.80;99.90;;;;;;5101623;28;20307;-89
2022/11/08 11:18:40;;;;;;;5.43;1.90;;;3.80;99.90;;;;;;5089603;28;20209;-88
2022/11/08 11:21:15;;;;;;;3.60;2.10;;;3.70;99.90;;;;;;5080819;28;20281;-89
2022/11/08 11:23:50;;;;;;;4.73;2.20;;;3.70;99.90;;;;;;5103501;28;20261;-89
2022/11/08 11:26:30;;;;;;;2.30;2.00;;;3.70;99.90;;;;;;5111461;28;20313;-89
2022/11/08 11:29:19;;;;;;;2.77;2.27;;;3.70;99.90;;;;;;5109899;28;20223;-89
2022/11/08 11:31:55;;;;;;;2.57;2.17;;;3.70;99.90;;;;;;5095994;28;20206;-88
2022/11/08 11:34:45;;;;;;;3.23;2.17;;;3.70;99.90;;;;;;5096477;28;20276;-89
2022/11/08 11:37:28;;;;;;;4.67;2.90;;;3.70;99.90;;;;;;5112326;28;20313;-88
2022/11/08 11:40:25;;;;;;;5.23;2.97;;;3.70;99.90;;;;;;5115483;28;20225;-89
2022/11/08 11:43:07;;;;;;;3.37;2.27;;;3.70;99.90;;;;;;5094713;28;20237;-88
2022/11/08 11:45:45;;;;;;;3.57;3.00;;;3.70;99.90;;;;;;5095969;28;20213;-89
2022/11/08 11:48:19;;;;;;;7.23;2.57;;;3.60;99.90;;;;;;5095539;28;20206;-89
2022/11/08 11:50:52;;;;;;;4.33;2.60;;;3.60;99.90;;;;;;5113616;28;20251;-89
2022/11/08 11:53:27;;;;;;;4.87;2.50;;;3.70;99.90;;;;;;5115298;28;20285;-89
2022/11/08 11:56:39;;;;;;;3.50;2.53;;;3.70;99.90;;;;;;5115839;28;20259;-89
2022/11/08 11:59:47;;;;;;;4.43;2.30;;;3.60;99.90;;;;;;5114566;28;20210;-90
2022/11/08 12:02:56;;;;;;;5.03;2.20;;;3.50;99.90;;;;;;5094754;28;20721;-88
2022/11/08 12:05:37;;;;;;;2.17;1.50;;;3.50;99.90;;;;;;5097879;28;20222;-89
2022/11/08 12:08:20;;;;;;;7.83;1.73;;;3.50;99.90;;;;;;5102920;28;20209;-88
2022/11/08 12:11:19;;;;;;;3.53;2.03;;;3.30;99.90;;;;;;5110167;28;20210;-89
2022/11/08 12:14:09;;;;;;;2.53;2.13;;;3.30;99.90;;;;;;5094439;28;20195;-88
2022/11/08 12:16:51;;;;;;;2.87;1.77;;;3.20;99.90;;;;;;5094645;28;20686;-89
2022/11/08 12:19:36;;;;;;;2.60;1.87;;;3.10;99.90;;;;;;5078474;28;20242;-89
2022/11/08 12:22:26;;;;;;;6.90;1.90;;;3.10;99.90;;;;;;5093479;28;20301;-89
2022/11/08 12:25:06;;;;;;;3.70;1.97;;;3.00;99.90;;;;;;5103448;28;20689;-88
2022/11/08 12:27:56;;;;;;;2.60;1.80;;;3.00;99.90;;;;;;5115179;28;20729;-89
2022/11/08 12:30:45;;;;;;;5.17;2.00;;;2.90;99.90;;;;;;5114327;28;20206;-89
2022/11/08 12:33:34;;;;;;;2.43;1.73;;;2.90;99.90;;;;;;5093535;28;20270;-88
2022/11/08 12:36:21;;;;;;;4.17;1.80;;;2.90;99.90;;;;;;5107415;28;20716;-89
2022/11/08 12:39:06;;;;;;;3.70;1.70;;;2.90;99.90;;;;;;5114550;28;20228;-89
2022/11/08 12:41:44;;;;;;;3.53;1.90;;;2.90;99.90;;;;;;5100138;28;20635;-89
2022/11/08 12:44:34;;;;;;;3.97;2.27;;;2.90;99.90;;;;;;5103340;28;20210;-90
2022/11/08 12:47:19;;;;;;;3.37;2.03;;;2.80;99.90;;;;;;5106402;28;20210;-89
2022/11/08 12:50:05;;;;;;;3.90;1.93;;;2.90;99.90;;;;;;5095242;28;20202;-89
2022/11/08 12:52:48;;;;;;;7.50;1.90;;;2.80;99.90;;;;;;5115268;28;20713;-89
2022/11/08 12:55:27;;;;;;;3.40;2.20;;;2.80;99.90;;;;;;5117794;28;20778;-87
2022/11/08 12:58:07;;;;;;;3.57;2.30;;;2.80;99.90;;;;;;5107693;28;20587;-89
2022/11/08 13:00:42;;;;;;;4.17;2.70;;;2.70;99.90;;;;;;5096999;28;20294;-88
2022/11/08 13:03:31;;;;;;;3.97;1.90;;;2.80;99.90;;;;;;5100671;28;20445;-89
2022/11/08 13:06:09;;;;;;;2.43;2.00;;;2.70;99.90;;;;;;5111634;28;20302;-90
2022/11/08 13:08:47;;;;;;;4.87;2.27;;;2.70;99.90;;;;;;5114183;28;20229;-90
2022/11/08 13:11:28;;;;;;;3.17;2.60;;;2.70;99.90;;;;;;5113938;28;20224;-92
2022/11/08 13:14:02;;;;;;;4.70;2.17;;;2.80;99.90;;;;;;5100741;28;20227;-91
2022/11/08 13:16:40;;;;;;;4.30;1.87;;;2.70;99.90;;;;;;5093796;28;20252;-89
2022/11/08 13:19:29;;;;;;;5.13;2.87;;;2.60;99.90;;;;;;5094385;28;20211;-90
2022/11/08 13:22:00;;;;;;;4.00;1.80;;;2.70;99.90;;;;;;5111441;28;20289;-89
2022/11/08 13:24:35;;;;;;;4.07;2.10;;;2.60;99.90;;;;;;5113888;28;20361;-88
2022/11/08 13:27:26;;;;;;;2.77;2.10;;;2.60;99.90;;;;;;5113779;28;20642;-89
2022/11/08 13:30:02;;;;;;;4.07;2.20;;;2.60;99.90;;;;;;5114587;28;20730;-90
2022/11/08 13:32:51;;;;;;;6.47;2.10;;;2.60;99.90;;;;;;5113213;28;20662;-89
2022/11/08 13:35:35;;;;;;;5.17;2.43;;;2.60;99.90;;;;;;5114231;28;20304;-90
2022/11/08 13:38:22;;;;;;;6.47;2.50;;;2.50;99.90;;;;;;5113952;28;20688;-90
2022/11/08 13:41:18;;;;;;;4.53;2.23;;;2.50;99.90;;;;;;5113679;28;20206;-89
2022/11/08 13:43:50;;;;;;;3.93;2.80;;;2.40;99.90;;;;;;5113409;28;20206;-90
2022/11/08 13:46:54;;;;;;;3.07;2.30;;;2.40;99.90;;;;;;5111011;28;20206;-90
2022/11/08 13:49:26;;;;;;;7.90;2.10;;;2.30;99.90;;;;;;5031170;28;20219;-90
2022/11/08 13:52:35;;;;;;;2.93;2.07;;;2.20;99.90;;;;;;5040528;28;20224;-89
2022/11/08 13:55:44;;;;;;;5.23;2.10;;;2.10;99.90;;;;;;5094377;28;20201;-89
2022/11/08 13:58:42;;;;;;;3.37;1.70;;;2.10;99.90;;;;;;5108105;28;20226;-90
2022/11/08 14:01:52;;;;;;;3.10;1.80;;;2.00;99.90;;;;;;5097087;28;20293;-89
2022/11/08 14:04:27;;;;;;;5.57;2.23;;;1.90;99.90;;;;;;5098008;28;20194;-89
2022/11/08 14:07:05;;;;;;;3.50;2.40;;;1.90;99.90;;;;;;5102099;28;20297;-90
2022/11/08 14:09:47;;;;;;;4.23;1.93;;;1.90;99.90;;;;;;5076202;28;20241;-90
2022/11/08 14:12:31;;;;;;;5.03;2.10;;;1.80;99.90;;;;;;5092444;28;20214;-89